createdAt,value
2023-03-08T00:01:22.311Z,1.75
2023-03-08T00:03:52.864Z,1.76
2023-03-08T00:06:19.386Z,1.66
2023-03-08T00:08:48.348Z,1.64
2023-03-08T00:11:15.425Z,1.56
2023-03-08T00:13:42.076Z,1.65
2023-03-08T00:16:11.453Z,1.69
2023-03-08T00:18:38.026Z,1.70
2023-03-08T00:21:09.994Z,1.54
2023-03-08T00:23:36.667Z,1.63
2023-03-08T00:26:03.854Z,1.65
2023-03-08T00:28:30.863Z,1.64
2023-03-08T00:30:58.739Z,1.61
2023-03-08T00:33:25.781Z,1.61
2023-03-08T00:36:04.106Z,1.51
2023-03-08T00:38:32.551Z,1.58
2023-03-08T00:40:59.725Z,1.50
2023-03-08T00:43:27.033Z,1.55
2023-03-08T00:45:53.710Z,1.43
2023-03-08T00:48:20.585Z,1.45
2023-03-08T00:50:47.433Z,1.44
2023-03-08T00:53:14.387Z,1.38
2023-03-08T00:55:49.169Z,1.37
2023-03-08T00:58:15.811Z,1.32
2023-03-08T01:00:42.547Z,1.24
2023-03-08T01:03:09.184Z,1.20
2023-03-08T01:05:43.643Z,1.28
2023-03-08T01:08:10.770Z,1.27
2023-03-08T01:10:37.484Z,1.12
2023-03-08T01:13:05.785Z,1.26
2023-03-08T01:15:37.166Z,1.14
2023-03-08T01:18:04.640Z,1.07
2023-03-08T01:20:31.617Z,1.21
2023-03-08T01:22:58.543Z,1.01
2023-03-08T01:25:25.916Z,1.24
2023-03-08T01:27:53.146Z,1.17
2023-03-08T01:30:19.813Z,1.27
2023-03-08T01:32:46.533Z,1.24
2023-03-08T01:35:13.411Z,1.23
2023-03-08T01:37:39.940Z,1.25
2023-03-08T01:40:08.215Z,1.27
2023-03-08T01:42:37.987Z,1.30
2023-03-08T01:45:07.065Z,1.31
2023-03-08T01:47:36.154Z,1.31
2023-03-08T01:50:06.431Z,1.46
2023-03-08T01:52:39.133Z,1.25
2023-03-08T01:55:08.692Z,1.24
2023-03-08T01:57:38.303Z,1.48
2023-03-08T02:00:24.707Z,1.49
2023-03-08T02:03:04.479Z,1.44
2023-03-08T02:05:31.618Z,1.51
2023-03-08T02:07:59.003Z,1.52
2023-03-08T02:10:25.747Z,1.54
2023-03-08T02:12:52.266Z,1.37
2023-03-08T02:15:20.838Z,1.60
2023-03-08T02:17:48.045Z,1.56
2023-03-08T02:20:27.544Z,1.53
2023-03-08T02:22:54.305Z,1.40
2023-03-08T02:25:23.762Z,1.50
2023-03-08T02:27:51.851Z,1.32
2023-03-08T02:30:25.596Z,1.53
2023-03-08T02:32:52.204Z,1.44
2023-03-08T02:35:18.941Z,1.56
2023-03-08T02:37:45.496Z,1.42
2023-03-08T02:40:12.720Z,1.44
2023-03-08T02:42:39.284Z,1.39
2023-03-08T02:45:07.169Z,1.54
2023-03-08T02:47:33.789Z,1.57
2023-03-08T02:50:02.047Z,1.58
2023-03-08T02:52:29.105Z,1.58
2023-03-08T02:54:55.893Z,1.36
2023-03-08T02:57:22.749Z,1.48
2023-03-08T02:59:49.390Z,1.50
2023-03-08T03:02:16.339Z,1.42
2023-03-08T03:04:43.354Z,1.50
2023-03-08T03:07:09.920Z,1.52
2023-03-08T03:09:37.114Z,1.49
2023-03-08T03:12:03.764Z,1.50
2023-03-08T03:14:32.892Z,1.43
2023-03-08T03:17:00.101Z,1.41
2023-03-08T03:19:26.739Z,1.46
2023-03-08T03:21:53.331Z,1.38
2023-03-08T03:24:20.143Z,1.38
2023-03-08T03:26:46.628Z,1.24
2023-03-08T03:29:13.085Z,1.38
2023-03-08T03:31:39.640Z,1.39
2023-03-08T03:34:06.419Z,1.41
2023-03-08T03:36:34.412Z,1.28
2023-03-08T03:39:00.867Z,1.39
2023-03-08T03:41:27.423Z,1.42
2023-03-08T03:43:53.884Z,1.26
2023-03-08T03:46:21.592Z,1.31
2023-03-08T03:48:48.194Z,1.24
2023-03-08T03:51:19.848Z,1.44
2023-03-08T03:53:47.201Z,1.40
2023-03-08T03:56:24.558Z,1.18
2023-03-08T03:58:51.572Z,1.38
2023-03-08T04:01:21.613Z,1.41
2023-03-08T04:03:48.816Z,1.14
2023-03-08T04:06:20.906Z,1.35
2023-03-08T04:08:48.057Z,1.38
2023-03-08T04:11:17.056Z,1.41
2023-03-08T04:13:44.477Z,1.39
2023-03-08T04:16:12.060Z,1.39
2023-03-08T04:18:38.642Z,1.40
2023-03-08T04:21:05.918Z,1.29
2023-03-08T04:23:33.000Z,1.39
2023-03-08T04:25:59.810Z,1.39
2023-03-08T04:28:26.316Z,1.14
2023-03-08T04:30:53.083Z,1.29
2023-03-08T04:33:19.825Z,1.24
2023-03-08T04:35:46.582Z,1.32
2023-03-08T04:38:13.234Z,1.36
2023-03-08T04:40:58.432Z,1.23
2023-03-08T04:43:25.172Z,1.15
2023-03-08T04:45:51.651Z,1.18
2023-03-08T04:48:18.116Z,1.34
2023-03-08T04:50:44.646Z,1.26
2023-03-08T04:53:11.171Z,1.32
2023-03-08T04:55:37.849Z,1.30
2023-03-08T04:58:04.359Z,1.24
2023-03-08T05:00:30.977Z,1.33
2023-03-08T05:02:57.436Z,1.36
2023-03-08T05:05:24.895Z,1.28
2023-03-08T05:07:51.332Z,1.29
2023-03-08T05:10:17.872Z,1.34
2023-03-08T05:12:44.376Z,1.23
2023-03-08T05:15:11.377Z,1.24
2023-03-08T05:17:37.996Z,1.25
2023-03-08T05:20:04.877Z,1.16
2023-03-08T05:22:31.642Z,1.06
2023-03-08T05:24:58.154Z,1.25
2023-03-08T05:27:24.691Z,1.21
2023-03-08T05:29:54.198Z,1.19
2023-03-08T05:32:20.939Z,1.11
2023-03-08T05:34:47.486Z,1.13
2023-03-08T05:37:13.919Z,0.89
2023-03-08T05:39:40.400Z,1.12
2023-03-08T05:42:07.016Z,1.09
2023-03-08T05:44:33.583Z,0.85
2023-03-08T05:47:00.036Z,1.06
2023-03-08T05:49:26.606Z,1.07
2023-03-08T05:51:53.620Z,1.02
2023-03-08T05:54:20.602Z,1.01
2023-03-08T05:56:47.321Z,1.06
2023-03-08T05:59:13.702Z,1.05
2023-03-08T06:01:40.201Z,1.02
2023-03-08T06:04:06.723Z,0.90
2023-03-08T06:06:34.915Z,0.93
2023-03-08T06:09:01.506Z,1.02
2023-03-08T06:11:27.992Z,1.01
2023-03-08T06:13:54.475Z,1.05
2023-03-08T06:16:20.991Z,1.08
2023-03-08T06:18:47.698Z,1.09
2023-03-08T06:21:18.677Z,0.99
2023-03-08T06:23:45.917Z,1.06
2023-03-08T06:26:12.970Z,1.00
2023-03-08T06:28:42.829Z,1.04
2023-03-08T06:31:12.797Z,1.14
2023-03-08T06:33:39.488Z,1.12
2023-03-08T06:36:12.202Z,1.18
2023-03-08T06:38:40.203Z,1.15
2023-03-08T06:41:08.102Z,1.11
2023-03-08T06:43:35.860Z,1.07
2023-03-08T06:46:06.898Z,1.23
2023-03-08T06:48:37.279Z,1.33
2023-03-08T06:51:05.096Z,1.27
2023-03-08T06:53:32.089Z,1.31
2023-03-08T06:55:58.615Z,1.27
2023-03-08T06:58:25.056Z,1.19
2023-03-08T07:00:51.490Z,1.16
2023-03-08T07:03:17.962Z,1.41
2023-03-08T07:05:44.658Z,1.39
2023-03-08T07:08:11.292Z,1.44
2023-03-08T07:10:37.827Z,1.30
2023-03-08T07:13:04.362Z,1.36
2023-03-08T07:15:31.073Z,1.41
2023-03-08T07:17:57.660Z,1.48
2023-03-08T07:20:25.746Z,1.56
2023-03-08T07:22:52.281Z,1.59
2023-03-08T07:25:20.116Z,1.60
2023-03-08T07:27:47.148Z,1.68
2023-03-08T07:30:15.123Z,1.71
2023-03-08T07:32:44.946Z,1.74
2023-03-08T07:35:14.138Z,1.75
2023-03-08T07:37:41.295Z,1.52
2023-03-08T07:40:10.921Z,1.78
2023-03-08T07:42:37.490Z,1.63
2023-03-08T07:45:04.357Z,1.67
2023-03-08T07:47:30.882Z,1.77
2023-03-08T07:49:57.388Z,1.56
2023-03-08T07:52:30.925Z,1.69
2023-03-08T07:54:57.688Z,1.65
2023-03-08T07:57:24.314Z,1.62
2023-03-08T07:59:53.356Z,1.52
2023-03-08T08:02:20.077Z,1.59
2023-03-08T08:04:46.543Z,1.59
2023-03-08T08:07:14.949Z,1.61
2023-03-08T08:09:42.016Z,1.64
2023-03-08T08:12:09.009Z,1.58
2023-03-08T08:14:35.437Z,1.41
2023-03-08T08:17:01.933Z,1.61
2023-03-08T08:19:28.751Z,1.63
2023-03-08T08:21:55.322Z,1.63
2023-03-08T08:24:21.841Z,1.62
2023-03-08T08:26:48.369Z,1.53
2023-03-08T08:29:14.908Z,1.59
2023-03-08T08:31:41.413Z,1.52
2023-03-08T08:34:08.423Z,1.45
2023-03-08T08:36:34.931Z,1.58
2023-03-08T08:39:01.471Z,1.50
2023-03-08T08:41:29.728Z,1.58
2023-03-08T08:43:59.538Z,1.59
2023-03-08T08:46:27.950Z,1.43
2023-03-08T08:48:55.451Z,1.50
2023-03-08T08:51:22.143Z,1.50
2023-03-08T08:53:48.706Z,1.60
2023-03-08T08:56:27.060Z,1.61
2023-03-08T08:58:56.019Z,1.58
2023-03-08T09:01:25.265Z,1.42
2023-03-08T09:03:52.255Z,1.61
2023-03-08T09:06:20.963Z,1.57
2023-03-08T09:08:55.688Z,1.63
2023-03-08T09:11:23.110Z,1.59
2023-03-08T09:13:49.767Z,1.43
2023-03-08T09:16:23.805Z,1.39
2023-03-08T09:18:50.782Z,1.50
2023-03-08T09:21:17.738Z,1.58
2023-03-08T09:23:44.659Z,1.63
2023-03-08T09:26:11.656Z,1.54
2023-03-08T09:28:38.363Z,1.61
2023-03-08T09:31:12.968Z,1.59
2023-03-08T09:33:45.337Z,1.55
2023-03-08T09:36:12.105Z,1.52
2023-03-08T09:38:38.784Z,1.49
2023-03-08T09:41:05.254Z,1.43
2023-03-08T09:43:50.679Z,1.35
2023-03-08T09:46:28.132Z,1.27
2023-03-08T09:48:55.301Z,1.23
2023-03-08T09:51:23.494Z,1.29
2023-03-08T09:53:57.170Z,1.27
2023-03-08T09:56:35.611Z,1.29
2023-03-08T09:59:11.014Z,1.35
2023-03-08T10:01:45.532Z,1.37
2023-03-08T10:04:34.379Z,1.41
2023-03-08T10:07:15.443Z,1.35
2023-03-08T10:09:53.038Z,1.41
2023-03-08T10:12:29.334Z,1.39
2023-03-08T10:15:04.933Z,1.44
2023-03-08T10:17:52.376Z,1.29
2023-03-08T10:20:35.740Z,1.50
2023-03-08T10:23:10.825Z,1.52
2023-03-08T10:25:37.638Z,1.52
2023-03-08T10:28:11.817Z,1.54
2023-03-08T10:30:45.086Z,1.56
2023-03-08T10:33:14.655Z,1.58
2023-03-08T10:35:50.283Z,1.63
2023-03-08T10:38:17.423Z,1.68
2023-03-08T10:40:43.872Z,1.72
2023-03-08T10:43:27.261Z,1.65
2023-03-08T10:46:05.935Z,1.68
2023-03-08T10:48:32.832Z,1.72
2023-03-08T10:51:04.570Z,1.76
2023-03-08T10:53:32.009Z,1.77
2023-03-08T10:56:00.844Z,1.72
2023-03-08T10:58:38.186Z,1.87
2023-03-08T11:01:07.242Z,1.90
2023-03-08T11:03:34.445Z,1.90
2023-03-08T11:06:03.846Z,1.92
2023-03-08T11:08:32.828Z,1.90
2023-03-08T11:11:03.661Z,1.92
2023-03-08T11:13:32.637Z,1.92
2023-03-08T11:16:04.938Z,1.93
2023-03-08T11:18:51.641Z,1.96
2023-03-08T11:22:00.141Z,2.01
2023-03-08T11:24:51.880Z,2.08
2023-03-08T11:27:43.134Z,2.13
2023-03-08T11:30:54.657Z,2.19
2023-03-08T11:33:39.625Z,2.25
2023-03-08T11:36:13.157Z,2.30
2023-03-08T11:38:40.298Z,2.22
2023-03-08T11:41:14.722Z,2.33
2023-03-08T11:43:47.906Z,2.33
2023-03-08T11:46:29.968Z,2.12
2023-03-08T11:49:10.803Z,2.25
2023-03-08T11:51:44.718Z,2.20
2023-03-08T11:54:55.988Z,2.27
2023-03-08T11:57:23.659Z,2.30
2023-03-08T11:59:50.096Z,2.25
2023-03-08T12:02:45.077Z,2.25
2023-03-08T12:05:24.958Z,2.13
2023-03-08T12:08:01.081Z,2.32
2023-03-08T12:10:31.750Z,2.34
2023-03-08T12:13:07.614Z,2.37
2023-03-08T12:15:47.610Z,2.39
2023-03-08T12:18:39.830Z,2.30
2023-03-08T12:21:22.054Z,2.41
2023-03-08T12:24:03.865Z,2.42
2023-03-08T12:26:50.110Z,2.51
2023-03-08T12:29:25.508Z,2.54
2023-03-08T12:31:52.322Z,2.64
2023-03-08T12:34:40.128Z,2.66
2023-03-08T12:37:29.738Z,2.70
2023-03-08T12:40:07.221Z,2.65
2023-03-08T12:42:40.961Z,2.74
2023-03-08T12:45:19.559Z,2.82
2023-03-08T12:47:57.977Z,2.81
2023-03-08T12:50:24.918Z,2.81
2023-03-08T12:52:51.444Z,2.84
2023-03-08T12:55:26.889Z,2.76
2023-03-08T12:57:54.883Z,2.82
2023-03-08T13:00:26.638Z,2.83
2023-03-08T13:03:13.235Z,2.94
2023-03-08T13:05:43.138Z,2.97
2023-03-08T13:08:12.679Z,3.00
2023-03-08T13:10:52.266Z,3.02
2023-03-08T13:13:38.111Z,3.03
2023-03-08T13:16:19.727Z,3.02
2023-03-08T13:18:48.843Z,3.05
2023-03-08T13:21:57.457Z,3.05
2023-03-08T13:24:33.128Z,3.05
2023-03-08T13:27:21.587Z,3.04
2023-03-08T13:29:48.895Z,2.99
2023-03-08T13:32:18.294Z,2.99
2023-03-08T13:34:47.703Z,3.08
2023-03-08T13:37:25.456Z,3.09
2023-03-08T13:39:57.947Z,3.03
2023-03-08T13:42:28.792Z,2.96
2023-03-08T13:45:18.625Z,3.07
2023-03-08T13:47:46.102Z,3.11
2023-03-08T13:50:35.237Z,3.08
2023-03-08T13:53:03.473Z,2.99
2023-03-08T13:55:35.500Z,3.08
2023-03-08T13:58:02.835Z,3.07
2023-03-08T14:00:31.431Z,3.11
2023-03-08T14:02:59.554Z,3.09
2023-03-08T14:05:40.378Z,2.93
2023-03-08T14:08:27.395Z,3.12
2023-03-08T14:10:56.230Z,3.10
2023-03-08T14:13:37.680Z,3.05
2023-03-08T14:16:06.139Z,3.04
2023-03-08T14:18:39.572Z,3.03
2023-03-08T14:21:17.765Z,3.03
2023-03-08T14:23:50.280Z,3.03
2023-03-08T14:26:27.125Z,3.01
2023-03-08T14:29:21.466Z,3.02
2023-03-08T14:31:57.754Z,2.91
2023-03-08T14:34:33.710Z,2.98
2023-03-08T14:37:06.986Z,2.86
2023-03-08T14:39:35.741Z,2.88
2023-03-08T14:42:18.064Z,2.60
2023-03-08T14:44:51.579Z,3.00
2023-03-08T14:47:25.686Z,3.03
2023-03-08T14:50:17.859Z,3.06
2023-03-08T14:52:47.718Z,3.06
2023-03-08T14:55:32.103Z,2.98
2023-03-08T14:58:01.461Z,3.07
2023-03-08T15:00:29.227Z,2.95
2023-03-08T15:02:59.591Z,2.98
2023-03-08T15:05:29.518Z,3.07
2023-03-08T15:07:58.138Z,3.06
2023-03-08T15:10:29.102Z,3.06
2023-03-08T15:12:56.205Z,3.03
2023-03-08T15:15:23.006Z,3.00
2023-03-08T15:17:52.463Z,3.01
2023-03-08T15:20:19.394Z,3.04
2023-03-08T15:22:52.809Z,3.07
2023-03-08T15:25:26.598Z,3.09
2023-03-08T15:27:53.259Z,3.10
2023-03-08T15:30:28.576Z,3.05
2023-03-08T15:32:57.884Z,3.10
2023-03-08T15:35:25.528Z,2.90
2023-03-08T15:37:52.265Z,2.96
2023-03-08T15:40:21.424Z,3.06
2023-03-08T15:42:48.083Z,3.11
2023-03-08T15:45:14.929Z,3.14
2023-03-08T15:47:41.800Z,3.17
2023-03-08T15:50:16.851Z,3.21
2023-03-08T15:52:44.799Z,3.19
2023-03-08T15:55:12.969Z,3.20
2023-03-08T15:57:39.625Z,3.19
2023-03-08T16:00:12.382Z,3.17
2023-03-08T16:02:39.551Z,3.20
2023-03-08T16:05:07.709Z,3.19
2023-03-08T16:07:34.696Z,3.15
2023-03-08T16:10:02.022Z,3.12
2023-03-08T16:12:28.572Z,3.02
2023-03-08T16:14:57.109Z,3.13
2023-03-08T16:17:25.956Z,3.10
2023-03-08T16:19:53.353Z,3.13
2023-03-08T16:22:20.320Z,3.13
2023-03-08T16:24:46.915Z,2.95
2023-03-08T16:27:13.393Z,3.08
2023-03-08T16:29:39.882Z,3.05
2023-03-08T16:32:07.056Z,3.01
2023-03-08T16:34:33.566Z,3.01
2023-03-08T16:37:00.212Z,3.03
2023-03-08T16:39:26.983Z,3.01
2023-03-08T16:41:53.474Z,2.93
2023-03-08T16:44:38.975Z,2.82
2023-03-08T16:47:06.521Z,2.96
2023-03-08T16:49:33.082Z,2.83
2023-03-08T16:51:59.593Z,2.95
2023-03-08T16:54:26.057Z,2.91
2023-03-08T16:56:52.542Z,2.88
2023-03-08T16:59:19.117Z,2.78
2023-03-08T17:01:47.461Z,2.86
2023-03-08T17:04:14.365Z,2.71
2023-03-08T17:06:43.282Z,2.80
2023-03-08T17:09:11.898Z,2.78
2023-03-08T17:11:38.954Z,2.78
2023-03-08T17:14:08.430Z,2.77
2023-03-08T17:16:36.895Z,2.63
2023-03-08T17:19:06.160Z,2.52
2023-03-08T17:21:38.012Z,2.68
2023-03-08T17:24:07.430Z,2.66
2023-03-08T17:26:35.192Z,2.51
2023-03-08T17:29:02.021Z,2.64
2023-03-08T17:31:28.853Z,2.61
2023-03-08T17:33:55.431Z,2.55
2023-03-08T17:36:22.080Z,2.61
2023-03-08T17:38:48.656Z,2.58
2023-03-08T17:41:15.761Z,2.56
2023-03-08T17:43:42.418Z,2.54
2023-03-08T17:46:21.983Z,2.47
2023-03-08T17:48:48.699Z,2.41
2023-03-08T17:51:17.379Z,2.41
2023-03-08T17:53:45.497Z,2.41
2023-03-08T17:56:31.959Z,2.28
2023-03-08T17:59:00.283Z,2.44
2023-03-08T18:01:29.111Z,2.40
2023-03-08T18:03:57.599Z,2.32
2023-03-08T18:06:28.444Z,2.41
2023-03-08T18:08:56.619Z,2.43
2023-03-08T18:11:23.736Z,2.42
2023-03-08T18:13:51.316Z,2.43
2023-03-08T18:16:19.057Z,2.26
2023-03-08T18:18:46.031Z,2.32
2023-03-08T18:21:14.176Z,2.36
2023-03-08T18:23:42.714Z,2.28
2023-03-08T18:26:10.409Z,2.18
2023-03-08T18:28:36.952Z,2.31
2023-03-08T18:31:12.209Z,2.22
2023-03-08T18:33:39.293Z,2.29
2023-03-08T18:36:06.189Z,2.24
2023-03-08T18:38:33.121Z,2.20
2023-03-08T18:40:59.774Z,2.20
2023-03-08T18:43:26.325Z,2.32
2023-03-08T18:45:54.616Z,2.32
2023-03-08T18:48:22.676Z,2.30
2023-03-08T18:50:49.475Z,2.29
2023-03-08T18:53:16.144Z,2.29
2023-03-08T18:55:59.778Z,2.16
2023-03-08T18:58:26.822Z,2.29
2023-03-08T19:00:56.992Z,2.26
2023-03-08T19:03:23.572Z,2.13
2023-03-08T19:05:50.135Z,2.09
2023-03-08T19:08:16.843Z,2.11
2023-03-08T19:10:43.280Z,2.17
2023-03-08T19:13:10.238Z,2.21
2023-03-08T19:15:38.117Z,2.20
2023-03-08T19:18:06.123Z,2.09
2023-03-08T19:20:40.148Z,2.14
2023-03-08T19:23:08.368Z,2.20
2023-03-08T19:25:56.091Z,2.22
2023-03-08T19:28:23.137Z,2.24
2023-03-08T19:30:49.655Z,2.20
2023-03-08T19:33:29.631Z,2.26
2023-03-08T19:35:56.907Z,2.16
2023-03-08T19:38:23.984Z,2.16
2023-03-08T19:40:50.518Z,2.25
2023-03-08T19:43:16.999Z,2.28
2023-03-08T19:45:48.983Z,2.27
2023-03-08T19:48:15.718Z,2.18
2023-03-08T19:50:45.970Z,2.16
2023-03-08T19:53:12.488Z,2.12
2023-03-08T19:55:48.323Z,2.15
2023-03-08T19:58:14.969Z,2.17
2023-03-08T20:00:44.062Z,2.25
2023-03-08T20:03:11.522Z,2.22
2023-03-08T20:05:45.671Z,2.25
2023-03-08T20:08:13.293Z,2.21
2023-03-08T20:10:40.054Z,2.16
2023-03-08T20:13:06.496Z,2.21
2023-03-08T20:15:33.204Z,2.17
2023-03-08T20:17:59.895Z,2.20
2023-03-08T20:20:26.496Z,2.20
2023-03-08T20:22:52.938Z,2.20
2023-03-08T20:25:19.444Z,2.21
2023-03-08T20:27:45.955Z,2.09
2023-03-08T20:30:13.078Z,2.20
2023-03-08T20:32:39.726Z,2.21
2023-03-08T20:35:07.075Z,2.23
2023-03-08T20:37:33.611Z,2.23
2023-03-08T20:40:01.280Z,2.06
2023-03-08T20:42:27.716Z,2.13
2023-03-08T20:44:54.190Z,2.19
2023-03-08T20:47:20.813Z,2.17
2023-03-08T20:49:47.338Z,2.13
2023-03-08T20:52:13.922Z,1.95
2023-03-08T20:54:40.610Z,2.02
2023-03-08T20:57:07.069Z,2.03
2023-03-08T20:59:33.537Z,2.01
2023-03-08T21:02:00.114Z,2.01
2023-03-08T21:04:26.635Z,2.00
2023-03-08T21:06:53.493Z,1.99
2023-03-08T21:09:20.932Z,1.97
2023-03-08T21:11:47.549Z,1.90
2023-03-08T21:14:14.394Z,1.85
2023-03-08T21:16:44.159Z,1.88
2023-03-08T21:19:10.756Z,1.99
2023-03-08T21:21:42.640Z,1.94
2023-03-08T21:24:19.503Z,1.91
2023-03-08T21:26:46.013Z,1.90
2023-03-08T21:29:15.281Z,1.92
2023-03-08T21:31:48.451Z,1.95
2023-03-08T21:34:15.555Z,1.93
2023-03-08T21:36:42.460Z,2.05
2023-03-08T21:39:09.627Z,2.06
2023-03-08T21:41:38.393Z,2.07
2023-03-08T21:44:09.246Z,2.07
2023-03-08T21:46:37.207Z,2.09
2023-03-08T21:49:04.097Z,2.06
2023-03-08T21:51:30.661Z,2.17
2023-03-08T21:53:58.050Z,2.17
2023-03-08T21:56:24.534Z,1.99
2023-03-08T21:58:51.092Z,2.17
2023-03-08T22:01:23.919Z,2.16
2023-03-08T22:03:51.657Z,2.15
2023-03-08T22:06:18.488Z,2.15
2023-03-08T22:08:47.746Z,2.13
2023-03-08T22:11:15.018Z,2.03
2023-03-08T22:13:41.685Z,2.11
2023-03-08T22:16:08.780Z,2.08
2023-03-08T22:18:35.766Z,1.90
2023-03-08T22:21:02.239Z,2.10
2023-03-08T22:23:28.762Z,2.10
2023-03-08T22:25:55.476Z,1.95
2023-03-08T22:28:21.926Z,2.09
2023-03-08T22:30:48.558Z,1.96
2023-03-08T22:33:15.143Z,2.04
2023-03-08T22:35:47.879Z,1.98
2023-03-08T22:38:14.524Z,1.84
2023-03-08T22:40:41.935Z,1.97
2023-03-08T22:43:08.899Z,1.99
2023-03-08T22:45:36.077Z,2.04
2023-03-08T22:48:03.275Z,2.06
2023-03-08T22:50:29.824Z,1.89
2023-03-08T22:52:56.313Z,2.05
2023-03-08T22:55:22.846Z,2.14
2023-03-08T22:57:49.311Z,2.14
2023-03-08T23:00:16.236Z,2.11
2023-03-08T23:02:46.442Z,2.12
2023-03-08T23:05:17.491Z,2.08
2023-03-08T23:07:44.073Z,2.06
2023-03-08T23:10:11.922Z,1.85
2023-03-08T23:12:38.564Z,2.02
2023-03-08T23:15:05.969Z,2.00
2023-03-08T23:17:32.524Z,2.00
2023-03-08T23:19:59.167Z,1.98
2023-03-08T23:22:25.904Z,1.90
2023-03-08T23:24:52.523Z,2.02
2023-03-08T23:27:19.076Z,1.94
2023-03-08T23:29:45.584Z,2.04
2023-03-08T23:32:12.125Z,2.02
2023-03-08T23:34:38.641Z,2.00
2023-03-08T23:37:05.221Z,1.96
2023-03-08T23:39:32.220Z,1.93
2023-03-08T23:41:58.673Z,1.91
2023-03-08T23:44:25.221Z,1.92
2023-03-08T23:46:51.685Z,1.86
2023-03-08T23:49:18.554Z,1.87
2023-03-08T23:51:45.707Z,1.95
2023-03-08T23:54:13.036Z,2.01
2023-03-08T23:56:40.331Z,2.01
2023-03-08T23:59:12.121Z,1.92
